createdAt,value
2022-11-13T00:01:13.725Z,44.42
2022-11-13T00:04:00.831Z,43.73
2022-11-13T00:06:48.371Z,43.90
2022-11-13T00:09:35.878Z,42.03
2022-11-13T00:12:22.996Z,43.73
2022-11-13T00:15:10.712Z,47.50
2022-11-13T00:17:59.393Z,45.45
2022-11-13T00:20:46.763Z,42.23
2022-11-13T00:23:34.846Z,39.15
2022-11-13T00:26:24.246Z,40.08
2022-11-13T00:29:11.557Z,39.98
2022-11-13T00:31:59.171Z,42.62
2022-11-13T00:34:48.084Z,41.20
2022-11-13T00:37:35.571Z,43.08
2022-11-13T00:40:23.152Z,41.92
2022-11-13T00:43:10.327Z,42.30
2022-11-13T00:45:57.533Z,43.05
2022-11-13T00:48:44.941Z,43.52
2022-11-13T00:51:33.138Z,43.48
2022-11-13T00:54:20.409Z,43.40
2022-11-13T00:57:07.973Z,42.58
2022-11-13T00:59:55.139Z,42.40
2022-11-13T01:02:42.751Z,41.28
2022-11-13T01:05:29.846Z,40.95
2022-11-13T01:08:17.617Z,41.90
2022-11-13T01:11:11.004Z,40.85
2022-11-13T01:16:44.940Z,40.67
2022-11-13T01:19:32.412Z,40.70
2022-11-13T01:22:19.428Z,39.45
2022-11-13T01:25:07.330Z,39.33
2022-11-13T01:27:54.555Z,40.33
2022-11-13T01:30:41.598Z,39.38
2022-11-13T01:33:29.626Z,39.03
2022-11-13T01:36:19.952Z,37.90
2022-11-13T01:39:07.436Z,39.75
2022-11-13T01:41:55.111Z,36.25
2022-11-13T01:44:58.724Z,37.58
2022-11-13T01:47:45.690Z,35.50
2022-11-13T01:50:33.288Z,37.53
2022-11-13T01:53:21.207Z,37.05
2022-11-13T01:56:08.903Z,35.65
2022-11-13T01:59:08.470Z,35.48
2022-11-13T02:01:57.138Z,36.55
2022-11-13T02:04:45.346Z,36.48
2022-11-13T02:07:32.589Z,37.45
2022-11-13T02:10:19.701Z,36.48
2022-11-13T02:13:07.287Z,37.25
2022-11-13T02:15:54.912Z,36.00
2022-11-13T02:18:42.741Z,36.35
2022-11-13T02:21:32.960Z,35.73
2022-11-13T02:24:32.675Z,36.15
2022-11-13T02:27:32.531Z,35.55
2022-11-13T02:30:28.499Z,35.15
2022-11-13T02:33:30.713Z,34.18
2022-11-13T02:36:18.484Z,34.85
2022-11-13T02:39:09.143Z,34.90
2022-11-13T02:41:56.375Z,33.42
2022-11-13T02:44:43.873Z,33.88
2022-11-13T02:47:30.830Z,33.20
2022-11-13T02:50:19.517Z,33.38
2022-11-13T02:53:07.890Z,32.63
2022-11-13T02:55:55.598Z,32.60
2022-11-13T02:58:43.423Z,32.85
2022-11-13T03:01:30.661Z,31.55
2022-11-13T03:04:18.193Z,30.92
2022-11-13T03:07:05.409Z,31.77
2022-11-13T03:09:52.619Z,30.20
2022-11-13T03:12:40.669Z,29.70
2022-11-13T03:15:28.086Z,30.10
2022-11-13T03:18:15.932Z,28.20
2022-11-13T03:21:12.812Z,27.75
2022-11-13T03:24:00.215Z,27.82
2022-11-13T03:26:47.618Z,27.37
2022-11-13T03:29:34.889Z,27.40
2022-11-13T03:32:22.044Z,26.60
2022-11-13T03:35:09.691Z,25.90
2022-11-13T03:37:57.222Z,25.95
2022-11-13T03:40:44.788Z,24.25
2022-11-13T03:43:32.092Z,24.02
2022-11-13T03:46:19.168Z,24.18
2022-11-13T03:49:06.933Z,24.05
2022-11-13T03:51:54.136Z,22.82
2022-11-13T03:54:41.662Z,22.45
2022-11-13T03:57:29.011Z,21.75
2022-11-13T04:00:17.374Z,20.57
2022-11-13T04:03:04.902Z,18.30
2022-11-13T04:05:52.782Z,18.52
2022-11-13T04:08:39.981Z,18.60
2022-11-13T04:11:27.453Z,19.02
2022-11-13T04:14:14.440Z,19.45
2022-11-13T04:17:01.645Z,20.50
2022-11-13T04:19:49.331Z,19.67
2022-11-13T04:22:36.583Z,19.87
2022-11-13T04:25:24.862Z,20.65
2022-11-13T04:28:12.876Z,21.17
2022-11-13T04:31:00.181Z,20.77
2022-11-13T04:33:47.261Z,18.35
2022-11-13T04:36:34.392Z,18.77
2022-11-13T04:39:21.993Z,18.50
2022-11-13T04:42:29.338Z,19.75
2022-11-13T04:45:21.627Z,19.67
2022-11-13T04:48:09.152Z,20.40
2022-11-13T04:50:56.210Z,21.05
2022-11-13T04:53:43.457Z,21.42
2022-11-13T04:56:30.860Z,21.52
2022-11-13T04:59:18.473Z,22.32
2022-11-13T05:02:06.381Z,23.12
2022-11-13T05:04:53.596Z,22.45
2022-11-13T05:07:42.721Z,21.87
2022-11-13T05:10:30.254Z,22.22
2022-11-13T05:13:17.384Z,21.33
2022-11-13T05:16:06.493Z,22.27
2022-11-13T05:18:53.532Z,20.85
2022-11-13T05:21:41.132Z,21.70
2022-11-13T05:24:28.438Z,21.52
2022-11-13T05:27:17.635Z,20.57
2022-11-13T05:30:05.811Z,21.05
2022-11-13T05:32:53.856Z,20.10
2022-11-13T05:35:40.915Z,20.68
2022-11-13T05:38:30.199Z,21.40
2022-11-13T05:41:20.247Z,21.30
2022-11-13T05:44:07.544Z,22.00
2022-11-13T05:46:54.528Z,22.17
2022-11-13T05:49:41.775Z,18.23
2022-11-13T05:52:28.851Z,17.70
2022-11-13T05:55:16.053Z,18.32
2022-11-13T05:58:03.357Z,18.42
2022-11-13T06:00:51.059Z,19.15
2022-11-13T06:03:38.993Z,18.77
2022-11-13T06:06:27.011Z,17.40
2022-11-13T06:09:19.399Z,19.40
2022-11-13T06:12:06.991Z,18.57
2022-11-13T06:14:54.210Z,19.32
2022-11-13T06:17:41.364Z,20.37
2022-11-13T06:20:28.833Z,21.45
2022-11-13T06:23:16.519Z,21.80
2022-11-13T06:26:06.476Z,21.33
2022-11-13T06:28:53.766Z,22.65
2022-11-13T06:31:40.763Z,22.82
2022-11-13T06:34:28.151Z,22.00
2022-11-13T06:37:15.582Z,21.45
2022-11-13T06:40:02.992Z,20.68
2022-11-13T06:42:50.116Z,20.50
2022-11-13T06:45:37.616Z,20.45
2022-11-13T06:48:25.457Z,19.77
2022-11-13T06:51:22.284Z,20.45
2022-11-13T06:54:10.001Z,20.08
2022-11-13T06:56:57.380Z,20.88
2022-11-13T06:59:44.812Z,19.82
2022-11-13T07:02:32.329Z,19.67
2022-11-13T07:05:19.780Z,19.00
2022-11-13T07:08:07.161Z,19.30
2022-11-13T07:10:56.179Z,18.02
2022-11-13T07:13:43.372Z,18.48
2022-11-13T07:16:44.017Z,19.25
2022-11-13T07:19:19.749Z,19.73
2022-11-13T07:22:07.239Z,19.35
2022-11-13T07:24:54.688Z,20.65
2022-11-13T07:27:46.359Z,21.42
2022-11-13T07:30:33.642Z,22.40
2022-11-13T07:33:21.021Z,22.13
2022-11-13T07:36:09.164Z,21.50
2022-11-13T07:39:00.121Z,21.85
2022-11-13T07:41:45.933Z,21.57
2022-11-13T07:44:53.684Z,21.15
2022-11-13T07:47:22.229Z,20.08
2022-11-13T07:50:11.123Z,20.40
2022-11-13T07:53:00.443Z,21.50
2022-11-13T07:55:48.226Z,22.25
2022-11-13T07:58:35.294Z,21.65
2022-11-13T08:01:22.473Z,23.10
2022-11-13T08:04:09.692Z,24.57
2022-11-13T08:06:57.271Z,27.07
2022-11-13T08:09:44.676Z,21.95
2022-11-13T08:12:31.857Z,21.80
2022-11-13T08:15:19.291Z,20.77
2022-11-13T08:18:07.418Z,20.40
2022-11-13T08:20:55.137Z,20.52
2022-11-13T08:23:43.139Z,17.77
2022-11-13T08:26:30.308Z,19.10
2022-11-13T08:29:17.388Z,18.75
2022-11-13T08:32:05.356Z,18.50
2022-11-13T08:34:52.850Z,18.17
2022-11-13T08:37:40.198Z,16.93
2022-11-13T08:40:27.574Z,17.00
2022-11-13T08:43:14.791Z,17.37
2022-11-13T08:46:02.019Z,17.17
2022-11-13T08:48:49.309Z,16.80
2022-11-13T08:51:36.865Z,16.67
2022-11-13T08:54:25.078Z,15.60
2022-11-13T08:57:12.371Z,15.18
2022-11-13T08:59:59.952Z,15.20
2022-11-13T09:02:47.528Z,18.07
2022-11-13T09:05:34.329Z,16.23
2022-11-13T09:08:21.997Z,14.83
2022-11-13T09:11:08.663Z,14.85
2022-11-13T09:13:56.532Z,12.98
2022-11-13T09:16:43.888Z,12.40
2022-11-13T09:19:31.418Z,11.22
2022-11-13T09:22:18.796Z,10.18
2022-11-13T09:25:06.625Z,10.53
2022-11-13T09:27:55.683Z,9.80
2022-11-13T09:30:43.158Z,9.03
2022-11-13T09:33:30.527Z,9.20
2022-11-13T09:36:18.290Z,10.20
2022-11-13T09:39:05.976Z,10.90
2022-11-13T09:42:02.802Z,9.15
2022-11-13T09:44:56.373Z,8.58
2022-11-13T09:47:45.239Z,8.53
2022-11-13T09:50:33.733Z,8.53
2022-11-13T09:53:21.057Z,7.62
2022-11-13T09:56:28.217Z,7.97
2022-11-13T09:59:42.978Z,8.30
2022-11-13T10:02:49.805Z,8.18
2022-11-13T10:05:55.281Z,8.70
2022-11-13T10:08:45.770Z,8.23
2022-11-13T10:11:50.391Z,8.40
2022-11-13T10:14:42.319Z,7.70
2022-11-13T10:17:40.727Z,7.67
2022-11-13T10:20:33.447Z,8.10
2022-11-13T10:23:35.759Z,7.80
2022-11-13T10:26:25.652Z,8.13
2022-11-13T10:29:15.400Z,8.08
2022-11-13T10:32:23.171Z,8.58
2022-11-13T10:35:25.797Z,8.15
2022-11-13T10:38:27.673Z,8.05
2022-11-13T10:41:19.567Z,8.10
2022-11-13T10:44:09.918Z,8.05
2022-11-13T10:47:26.451Z,8.15
2022-11-13T10:50:26.792Z,7.65
2022-11-13T10:53:20.691Z,7.97
2022-11-13T10:56:16.926Z,7.78
2022-11-13T10:59:13.589Z,8.25
2022-11-13T11:02:03.567Z,8.03
2022-11-13T11:04:50.412Z,8.10
2022-11-13T11:07:42.030Z,8.08
2022-11-13T11:10:35.153Z,8.10
2022-11-13T11:13:23.870Z,8.43
2022-11-13T11:16:14.590Z,8.80
2022-11-13T11:19:04.034Z,9.25
2022-11-13T11:21:54.360Z,9.10
2022-11-13T11:24:50.671Z,8.83
2022-11-13T11:27:40.814Z,9.18
2022-11-13T11:30:30.854Z,9.03
2022-11-13T11:33:30.224Z,8.38
2022-11-13T11:36:23.769Z,9.00
2022-11-13T11:39:13.931Z,8.70
2022-11-13T11:42:33.006Z,8.48
2022-11-13T11:45:35.538Z,8.90
2022-11-13T11:48:25.775Z,8.55
2022-11-13T11:51:27.240Z,8.63
2022-11-13T11:54:38.002Z,8.80
2022-11-13T11:57:28.159Z,8.88
2022-11-13T12:00:17.576Z,9.08
2022-11-13T12:03:40.801Z,9.00
2022-11-13T12:06:33.718Z,9.43
2022-11-13T12:09:24.577Z,9.50
2022-11-13T12:12:23.047Z,9.55
2022-11-13T12:15:28.332Z,9.10
2022-11-13T12:18:43.102Z,9.80
2022-11-13T12:21:33.487Z,9.28
2022-11-13T12:24:38.566Z,9.68
2022-11-13T12:27:34.224Z,9.50
2022-11-13T12:30:24.151Z,9.28
2022-11-13T12:33:26.998Z,9.65
2022-11-13T12:36:15.060Z,9.70
2022-11-13T12:39:33.926Z,9.00
2022-11-13T12:42:36.014Z,9.43
2022-11-13T12:45:29.213Z,9.20
2022-11-13T12:48:19.616Z,9.68
2022-11-13T12:51:09.556Z,9.98
2022-11-13T12:53:57.641Z,10.28
2022-11-13T12:56:45.052Z,10.75
2022-11-13T12:59:37.704Z,10.40
2022-11-13T13:03:01.040Z,10.40
2022-11-13T13:09:22.161Z,10.15
2022-11-13T13:12:41.048Z,9.48
2022-11-13T13:15:43.719Z,9.13
2022-11-13T13:18:33.727Z,8.70
2022-11-13T13:27:26.767Z,9.18
2022-11-13T13:30:20.111Z,9.38
2022-11-13T13:33:16.917Z,9.48
2022-11-13T13:36:07.114Z,9.98
2022-11-13T13:39:18.579Z,9.63
2022-11-13T13:42:42.142Z,9.40
2022-11-13T13:46:04.382Z,9.25
2022-11-13T13:48:53.272Z,9.53
2022-11-13T13:51:50.067Z,9.00
2022-11-13T13:54:38.723Z,9.18
2022-11-13T13:57:27.319Z,8.40
2022-11-13T14:00:15.989Z,9.10
2022-11-13T14:03:04.164Z,11.00
2022-11-13T14:05:51.249Z,12.80
2022-11-13T14:08:38.375Z,13.53
2022-11-13T14:11:32.914Z,14.20
2022-11-13T14:14:23.127Z,15.03
2022-11-13T14:17:11.913Z,14.93
2022-11-13T14:20:01.291Z,15.85
2022-11-13T14:22:56.273Z,15.63
2022-11-13T14:25:41.494Z,15.87
2022-11-13T14:28:31.438Z,16.02
2022-11-13T14:31:18.923Z,16.90
2022-11-13T14:34:11.498Z,16.17
2022-11-13T14:37:18.281Z,17.05
2022-11-13T14:40:18.156Z,18.25
2022-11-13T14:43:07.544Z,16.12
2022-11-13T14:45:56.682Z,16.25
2022-11-13T14:48:47.217Z,15.75
2022-11-13T14:51:35.651Z,15.65
2022-11-13T14:55:08.156Z,15.55
2022-11-13T14:57:26.162Z,16.30
2022-11-13T15:00:15.798Z,15.48
2022-11-13T15:03:04.795Z,15.50
2022-11-13T15:05:52.220Z,15.58
2022-11-13T15:08:39.652Z,15.88
2022-11-13T15:11:27.510Z,16.45
2022-11-13T15:14:16.396Z,16.80
2022-11-13T15:17:03.508Z,18.95
2022-11-13T15:19:52.701Z,19.30
2022-11-13T15:22:40.625Z,18.73
2022-11-13T15:25:28.268Z,17.23
2022-11-13T15:28:15.656Z,17.48
2022-11-13T15:31:02.559Z,15.95
2022-11-13T15:33:49.761Z,13.75
2022-11-13T15:36:36.659Z,14.90
2022-11-13T15:39:24.334Z,16.32
2022-11-13T15:42:16.053Z,16.70
2022-11-13T15:45:05.441Z,16.67
2022-11-13T15:47:52.514Z,15.90
2022-11-13T15:50:39.601Z,16.23
2022-11-13T15:53:26.834Z,16.17
2022-11-13T15:56:14.524Z,16.15
2022-11-13T15:59:01.667Z,16.57
2022-11-13T16:01:51.797Z,16.35
2022-11-13T16:04:55.645Z,16.97
2022-11-13T16:07:32.233Z,15.88
2022-11-13T16:10:20.333Z,16.52
2022-11-13T16:13:07.646Z,16.20
2022-11-13T16:15:55.492Z,16.32
2022-11-13T16:18:42.671Z,16.45
2022-11-13T16:21:30.442Z,16.77
2022-11-13T16:24:21.083Z,16.85
2022-11-13T16:27:07.399Z,18.02
2022-11-13T16:29:55.007Z,18.27
2022-11-13T16:32:42.075Z,18.98
2022-11-13T16:35:29.145Z,19.95
2022-11-13T16:38:16.415Z,19.75
2022-11-13T16:41:03.840Z,19.17
2022-11-13T16:43:50.881Z,17.73
2022-11-13T16:46:41.672Z,17.40
2022-11-13T16:49:28.761Z,18.80
2022-11-13T16:52:16.537Z,18.95
2022-11-13T16:55:06.725Z,22.30
2022-11-13T16:57:53.207Z,22.15
2022-11-13T17:00:40.444Z,22.60
2022-11-13T17:03:28.166Z,27.82
2022-11-13T17:06:27.639Z,26.40
2022-11-13T17:09:15.958Z,36.70
2022-11-13T17:12:03.038Z,20.15
2022-11-13T17:14:50.466Z,25.85
2022-11-13T17:17:37.604Z,28.25
2022-11-13T17:20:24.840Z,36.28
2022-11-13T17:23:16.113Z,38.17
2022-11-13T17:26:04.691Z,37.23
2022-11-13T17:28:52.340Z,44.10
2022-11-13T17:31:39.963Z,50.03
2022-11-13T17:34:27.698Z,41.70
2022-11-13T17:37:14.916Z,43.08
2022-11-13T17:40:02.130Z,27.35
2022-11-13T17:42:49.627Z,22.30
2022-11-13T17:45:38.247Z,24.95
2022-11-13T17:48:25.428Z,23.42
2022-11-13T17:51:14.480Z,18.98
2022-11-13T17:54:01.590Z,20.37
2022-11-13T17:56:49.081Z,15.53
2022-11-13T17:59:36.656Z,19.02
2022-11-13T18:02:24.421Z,19.35
2022-11-13T18:05:11.487Z,21.48
2022-11-13T18:07:58.513Z,21.82
2022-11-13T18:10:46.180Z,22.93
2022-11-13T18:13:33.279Z,23.20
2022-11-13T18:16:23.267Z,23.75
2022-11-13T18:19:10.558Z,25.35
2022-11-13T18:21:58.267Z,24.18
2022-11-13T18:24:45.760Z,24.12
2022-11-13T18:27:32.962Z,24.82
2022-11-13T18:30:20.736Z,23.50
2022-11-13T18:33:08.221Z,22.02
2022-11-13T18:35:57.247Z,22.35
2022-11-13T18:38:44.604Z,20.75
2022-11-13T18:41:32.736Z,19.10
2022-11-13T18:44:19.943Z,21.73
2022-11-13T18:47:07.256Z,20.12
2022-11-13T18:49:54.813Z,19.45
2022-11-13T18:52:42.039Z,17.40
2022-11-13T18:55:29.373Z,16.10
2022-11-13T18:58:16.394Z,16.17
2022-11-13T19:01:20.671Z,14.50
2022-11-13T19:04:22.167Z,15.38
2022-11-13T19:06:55.044Z,16.67
2022-11-13T19:09:44.206Z,18.60
2022-11-13T19:12:31.528Z,19.15
2022-11-13T19:15:19.229Z,20.37
2022-11-13T19:18:08.063Z,20.60
2022-11-13T19:20:55.603Z,22.48
2022-11-13T19:23:43.030Z,22.05
2022-11-13T19:26:30.322Z,22.55
2022-11-13T19:29:18.253Z,20.65
2022-11-13T19:32:05.550Z,17.98
2022-11-13T19:34:52.845Z,13.88
2022-11-13T19:37:39.818Z,16.30
2022-11-13T19:40:27.366Z,14.68
2022-11-13T19:43:14.737Z,15.75
2022-11-13T19:46:13.565Z,18.05
2022-11-13T19:49:01.438Z,20.62
2022-11-13T19:51:48.859Z,17.75
2022-11-13T19:54:35.966Z,15.45
2022-11-13T19:57:23.309Z,14.63
2022-11-13T20:00:13.146Z,14.23
2022-11-13T20:03:05.034Z,16.12
2022-11-13T20:05:54.830Z,18.15
2022-11-13T20:08:42.455Z,19.85
2022-11-13T20:11:30.390Z,19.40
2022-11-13T20:14:17.866Z,20.40
2022-11-13T20:17:05.425Z,21.10
2022-11-13T20:19:52.219Z,19.23
2022-11-13T20:22:39.458Z,20.27
2022-11-13T20:25:26.834Z,21.23
2022-11-13T20:28:14.083Z,24.63
2022-11-13T20:31:10.075Z,27.95
2022-11-13T20:33:58.272Z,27.82
2022-11-13T20:36:45.607Z,28.00
2022-11-13T20:39:32.902Z,27.07
2022-11-13T20:42:20.085Z,27.80
2022-11-13T20:45:09.236Z,28.50
2022-11-13T20:47:56.341Z,31.62
2022-11-13T20:50:43.973Z,34.95
2022-11-13T20:53:30.874Z,31.70
2022-11-13T20:56:20.237Z,25.37
2022-11-13T20:59:08.017Z,25.90
2022-11-13T21:01:55.530Z,28.05
2022-11-13T21:04:43.000Z,25.72
2022-11-13T21:07:30.444Z,27.32
2022-11-13T21:10:18.180Z,24.60
2022-11-13T21:13:05.761Z,27.20
2022-11-13T21:15:53.023Z,30.43
2022-11-13T21:18:40.414Z,26.90
2022-11-13T21:21:29.090Z,29.98
2022-11-13T21:24:16.645Z,33.33
2022-11-13T21:27:04.303Z,31.75
2022-11-13T21:29:51.610Z,33.05
2022-11-13T21:32:39.653Z,33.67
2022-11-13T21:35:28.997Z,33.55
2022-11-13T21:38:15.913Z,33.30
2022-11-13T21:41:24.661Z,35.25
2022-11-13T21:44:12.332Z,34.18
2022-11-13T21:46:59.901Z,32.80
2022-11-13T21:49:47.091Z,33.75
2022-11-13T21:52:34.885Z,32.42
2022-11-13T21:55:21.906Z,32.03
2022-11-13T21:58:09.363Z,28.77
2022-11-13T22:00:56.484Z,28.15
2022-11-13T22:03:43.433Z,24.43
2022-11-13T22:06:37.184Z,23.60
2022-11-13T22:09:26.013Z,20.50
2022-11-13T22:12:13.245Z,22.55
2022-11-13T22:15:00.737Z,23.95
2022-11-13T22:17:48.433Z,25.68
2022-11-13T22:20:35.785Z,24.55
2022-11-13T22:23:23.265Z,24.43
2022-11-13T22:26:13.018Z,26.42
2022-11-13T22:29:01.091Z,28.17
2022-11-13T22:31:48.534Z,27.60
2022-11-13T22:34:35.971Z,28.98
2022-11-13T22:37:22.754Z,31.48
2022-11-13T22:40:11.143Z,29.48
2022-11-13T22:42:58.270Z,32.58
2022-11-13T22:45:45.981Z,33.25
2022-11-13T22:48:33.909Z,32.20
2022-11-13T22:51:26.779Z,30.40
2022-11-13T22:54:14.421Z,28.65
2022-11-13T22:57:03.731Z,27.13
2022-11-13T22:59:50.664Z,29.40
2022-11-13T23:02:41.844Z,27.55
2022-11-13T23:05:26.669Z,28.35
2022-11-13T23:08:14.286Z,30.17
2022-11-13T23:11:01.084Z,28.83
2022-11-13T23:13:51.020Z,32.28
2022-11-13T23:16:38.228Z,31.80
2022-11-13T23:19:25.828Z,32.58
2022-11-13T23:22:12.970Z,34.53
2022-11-13T23:25:00.901Z,34.15
2022-11-13T23:27:47.985Z,36.20
2022-11-13T23:30:35.161Z,36.75
2022-11-13T23:33:22.800Z,36.17
2022-11-13T23:36:11.740Z,36.42
2022-11-13T23:38:59.117Z,38.63
2022-11-13T23:41:46.343Z,39.58
2022-11-13T23:44:33.617Z,37.38
2022-11-13T23:47:21.214Z,37.90
2022-11-13T23:50:09.939Z,37.75
2022-11-13T23:52:57.336Z,36.17
2022-11-13T23:55:45.154Z,35.33
2022-11-13T23:58:33.196Z,37.63
